sensor_id;sensor_type;location;lat;lon;timestamp;P1;durP1;ratioP1;P2;durP2;ratioP2
80411;SDS011;69749;42.684;23.360;2023-05-29T00:00:31;8.43;;;4.82;;
80411;SDS011;69749;42.684;23.360;2023-05-29T00:02:57;7.10;;;5.10;;
80411;SDS011;69749;42.684;23.360;2023-05-29T00:05:23;9.02;;;5.25;;
80411;SDS011;69749;42.684;23.360;2023-05-29T00:07:49;8.38;;;5.30;;
80411;SDS011;69749;42.684;23.360;2023-05-29T00:10:15;8.60;;;5.45;;
80411;SDS011;69749;42.684;23.360;2023-05-29T00:12:41;9.23;;;5.63;;
80411;SDS011;69749;42.684;23.360;2023-05-29T00:15:07;9.00;;;5.75;;
80411;SDS011;69749;42.684;23.360;2023-05-29T00:17:34;7.72;;;5.60;;
80411;SDS011;69749;42.684;23.360;2023-05-29T00:20:00;7.82;;;5.35;;
80411;SDS011;69749;42.684;23.360;2023-05-29T00:22:28;7.57;;;5.53;;
80411;SDS011;69749;42.684;23.360;2023-05-29T00:24:53;8.13;;;5.43;;
80411;SDS011;69749;42.684;23.360;2023-05-29T00:27:19;9.77;;;5.43;;
80411;SDS011;69749;42.684;23.360;2023-05-29T00:29:45;8.70;;;5.57;;
80411;SDS011;69749;42.684;23.360;2023-05-29T00:32:11;8.02;;;5.13;;
80411;SDS011;69749;42.684;23.360;2023-05-29T00:34:36;7.10;;;4.85;;
80411;SDS011;69749;42.684;23.360;2023-05-29T00:37:02;8.70;;;5.38;;
80411;SDS011;69749;42.684;23.360;2023-05-29T00:39:27;10.82;;;4.97;;
80411;SDS011;69749;42.684;23.360;2023-05-29T00:41:53;8.82;;;5.10;;
80411;SDS011;69749;42.684;23.360;2023-05-29T00:44:19;12.15;;;5.80;;
80411;SDS011;69749;42.684;23.360;2023-05-29T00:46:45;8.80;;;5.47;;
80411;SDS011;69749;42.684;23.360;2023-05-29T00:49:11;9.40;;;5.35;;
80411;SDS011;69749;42.684;23.360;2023-05-29T00:51:38;9.82;;;5.53;;
80411;SDS011;69749;42.684;23.360;2023-05-29T00:54:04;8.40;;;5.28;;
80411;SDS011;69749;42.684;23.360;2023-05-29T00:56:33;8.32;;;4.82;;
80411;SDS011;69749;42.684;23.360;2023-05-29T00:59:00;9.15;;;5.72;;
80411;SDS011;69749;42.684;23.360;2023-05-29T01:01:26;11.63;;;5.60;;
80411;SDS011;69749;42.684;23.360;2023-05-29T01:03:52;8.75;;;5.65;;
80411;SDS011;69749;42.684;23.360;2023-05-29T01:06:20;8.27;;;5.57;;
80411;SDS011;69749;42.684;23.360;2023-05-29T01:08:46;9.07;;;5.60;;
80411;SDS011;69749;42.684;23.360;2023-05-29T01:13:54;9.52;;;5.72;;
80411;SDS011;69749;42.684;23.360;2023-05-29T01:16:28;9.60;;;5.70;;
80411;SDS011;69749;42.684;23.360;2023-05-29T01:19:23;7.95;;;5.57;;
80411;SDS011;69749;42.684;23.360;2023-05-29T01:27:57;7.72;;;5.18;;
80411;SDS011;69749;42.684;23.360;2023-05-29T01:30:25;8.40;;;5.65;;
80411;SDS011;69749;42.684;23.360;2023-05-29T01:32:55;7.78;;;5.32;;
80411;SDS011;69749;42.684;23.360;2023-05-29T01:35:21;7.82;;;5.55;;
80411;SDS011;69749;42.684;23.360;2023-05-29T01:37:46;9.23;;;5.95;;
80411;SDS011;69749;42.684;23.360;2023-05-29T01:40:11;8.30;;;5.35;;
80411;SDS011;69749;42.684;23.360;2023-05-29T01:42:37;7.80;;;5.20;;
80411;SDS011;69749;42.684;23.360;2023-05-29T01:45:05;8.52;;;5.78;;
80411;SDS011;69749;42.684;23.360;2023-05-29T01:47:31;9.63;;;5.90;;
80411;SDS011;69749;42.684;23.360;2023-05-29T01:49:57;10.27;;;5.95;;
80411;SDS011;69749;42.684;23.360;2023-05-29T01:52:24;9.15;;;5.82;;
80411;SDS011;69749;42.684;23.360;2023-05-29T01:54:49;9.52;;;6.28;;
80411;SDS011;69749;42.684;23.360;2023-05-29T01:57:14;12.98;;;5.70;;
80411;SDS011;69749;42.684;23.360;2023-05-29T01:59:40;8.45;;;5.82;;
80411;SDS011;69749;42.684;23.360;2023-05-29T02:02:09;8.50;;;6.25;;
80411;SDS011;69749;42.684;23.360;2023-05-29T02:04:35;9.95;;;6.10;;
80411;SDS011;69749;42.684;23.360;2023-05-29T02:07:00;9.80;;;5.60;;
80411;SDS011;69749;42.684;23.360;2023-05-29T02:09:26;10.77;;;5.72;;
80411;SDS011;69749;42.684;23.360;2023-05-29T02:11:52;11.15;;;5.55;;
80411;SDS011;69749;42.684;23.360;2023-05-29T02:14:17;9.68;;;6.00;;
80411;SDS011;69749;42.684;23.360;2023-05-29T02:16:43;11.27;;;5.65;;
80411;SDS011;69749;42.684;23.360;2023-05-29T02:19:09;9.05;;;5.93;;
80411;SDS011;69749;42.684;23.360;2023-05-29T02:21:37;9.52;;;5.63;;
80411;SDS011;69749;42.684;23.360;2023-05-29T02:24:03;7.70;;;5.53;;
80411;SDS011;69749;42.684;23.360;2023-05-29T02:26:29;9.68;;;6.03;;
80411;SDS011;69749;42.684;23.360;2023-05-29T02:28:54;8.80;;;5.38;;
80411;SDS011;69749;42.684;23.360;2023-05-29T02:31:19;8.15;;;5.45;;
80411;SDS011;69749;42.684;23.360;2023-05-29T02:33:45;8.35;;;6.20;;
80411;SDS011;69749;42.684;23.360;2023-05-29T02:36:10;8.57;;;5.90;;
80411;SDS011;69749;42.684;23.360;2023-05-29T02:38:36;11.20;;;5.95;;
80411;SDS011;69749;42.684;23.360;2023-05-29T02:41:02;13.73;;;6.28;;
80411;SDS011;69749;42.684;23.360;2023-05-29T02:43:27;9.43;;;6.47;;
80411;SDS011;69749;42.684;23.360;2023-05-29T02:45:53;11.10;;;6.68;;
80411;SDS011;69749;42.684;23.360;2023-05-29T02:48:18;8.85;;;6.78;;
80411;SDS011;69749;42.684;23.360;2023-05-29T02:50:44;10.75;;;6.63;;
80411;SDS011;69749;42.684;23.360;2023-05-29T02:53:09;10.30;;;6.72;;
80411;SDS011;69749;42.684;23.360;2023-05-29T02:55:35;8.55;;;6.50;;
80411;SDS011;69749;42.684;23.360;2023-05-29T02:58:01;8.48;;;5.90;;
80411;SDS011;69749;42.684;23.360;2023-05-29T03:00:27;9.55;;;5.75;;
80411;SDS011;69749;42.684;23.360;2023-05-29T03:02:53;11.60;;;6.40;;
80411;SDS011;69749;42.684;23.360;2023-05-29T03:05:20;10.68;;;6.32;;
80411;SDS011;69749;42.684;23.360;2023-05-29T03:07:45;9.25;;;6.40;;
80411;SDS011;69749;42.684;23.360;2023-05-29T03:10:11;13.30;;;6.35;;
80411;SDS011;69749;42.684;23.360;2023-05-29T03:12:36;12.55;;;6.45;;
80411;SDS011;69749;42.684;23.360;2023-05-29T03:15:02;13.23;;;6.63;;
80411;SDS011;69749;42.684;23.360;2023-05-29T03:17:28;10.10;;;6.80;;
80411;SDS011;69749;42.684;23.360;2023-05-29T03:19:53;10.23;;;6.45;;
80411;SDS011;69749;42.684;23.360;2023-05-29T03:22:19;8.80;;;5.78;;
80411;SDS011;69749;42.684;23.360;2023-05-29T03:24:45;8.70;;;5.90;;
80411;SDS011;69749;42.684;23.360;2023-05-29T03:27:10;9.50;;;6.72;;
80411;SDS011;69749;42.684;23.360;2023-05-29T03:29:36;12.68;;;6.97;;
80411;SDS011;69749;42.684;23.360;2023-05-29T03:32:01;10.52;;;7.38;;
80411;SDS011;69749;42.684;23.360;2023-05-29T03:34:27;15.27;;;7.47;;
80411;SDS011;69749;42.684;23.360;2023-05-29T03:36:52;10.77;;;7.13;;
80411;SDS011;69749;42.684;23.360;2023-05-29T03:39:18;9.60;;;6.53;;
80411;SDS011;69749;42.684;23.360;2023-05-29T03:41:43;14.80;;;7.32;;
80411;SDS011;69749;42.684;23.360;2023-05-29T03:44:09;10.50;;;6.70;;
80411;SDS011;69749;42.684;23.360;2023-05-29T03:46:34;12.57;;;7.28;;
80411;SDS011;69749;42.684;23.360;2023-05-29T03:49:00;11.45;;;7.30;;
80411;SDS011;69749;42.684;23.360;2023-05-29T03:51:25;10.77;;;6.50;;
80411;SDS011;69749;42.684;23.360;2023-05-29T03:53:51;11.13;;;6.95;;
80411;SDS011;69749;42.684;23.360;2023-05-29T03:56:16;9.27;;;6.65;;
80411;SDS011;69749;42.684;23.360;2023-05-29T03:58:41;13.73;;;7.00;;
80411;SDS011;69749;42.684;23.360;2023-05-29T04:01:07;10.73;;;6.28;;
80411;SDS011;69749;42.684;23.360;2023-05-29T04:03:34;13.05;;;6.97;;
80411;SDS011;69749;42.684;23.360;2023-05-29T04:06:00;10.43;;;6.07;;
80411;SDS011;69749;42.684;23.360;2023-05-29T04:08:25;10.57;;;6.97;;
80411;SDS011;69749;42.684;23.360;2023-05-29T04:10:51;11.98;;;7.00;;
80411;SDS011;69749;42.684;23.360;2023-05-29T04:13:19;12.68;;;7.70;;
80411;SDS011;69749;42.684;23.360;2023-05-29T04:15:45;11.27;;;7.13;;
80411;SDS011;69749;42.684;23.360;2023-05-29T04:18:10;11.23;;;7.18;;
80411;SDS011;69749;42.684;23.360;2023-05-29T04:20:35;13.07;;;6.40;;
80411;SDS011;69749;42.684;23.360;2023-05-29T04:23:01;10.95;;;7.35;;
80411;SDS011;69749;42.684;23.360;2023-05-29T04:25:26;20.73;;;6.82;;
80411;SDS011;69749;42.684;23.360;2023-05-29T04:27:52;12.10;;;6.88;;
80411;SDS011;69749;42.684;23.360;2023-05-29T04:30:17;10.57;;;7.03;;
80411;SDS011;69749;42.684;23.360;2023-05-29T04:32:43;11.60;;;6.85;;
80411;SDS011;69749;42.684;23.360;2023-05-29T04:35:08;11.88;;;6.78;;
80411;SDS011;69749;42.684;23.360;2023-05-29T04:37:34;13.40;;;6.75;;
80411;SDS011;69749;42.684;23.360;2023-05-29T04:40:06;11.75;;;6.60;;
80411;SDS011;69749;42.684;23.360;2023-05-29T04:42:34;13.15;;;6.95;;
80411;SDS011;69749;42.684;23.360;2023-05-29T04:45:00;15.10;;;7.13;;
80411;SDS011;69749;42.684;23.360;2023-05-29T04:47:26;9.18;;;6.50;;
80411;SDS011;69749;42.684;23.360;2023-05-29T04:49:54;16.23;;;7.43;;
80411;SDS011;69749;42.684;23.360;2023-05-29T04:52:19;15.02;;;7.78;;
80411;SDS011;69749;42.684;23.360;2023-05-29T04:54:46;12.43;;;7.72;;
80411;SDS011;69749;42.684;23.360;2023-05-29T04:57:12;18.08;;;8.35;;
80411;SDS011;69749;42.684;23.360;2023-05-29T04:59:37;27.05;;;8.57;;
80411;SDS011;69749;42.684;23.360;2023-05-29T05:02:03;19.63;;;9.18;;
80411;SDS011;69749;42.684;23.360;2023-05-29T05:04:29;18.45;;;8.20;;
80411;SDS011;69749;42.684;23.360;2023-05-29T05:06:55;14.52;;;8.57;;
80411;SDS011;69749;42.684;23.360;2023-05-29T05:09:20;16.75;;;9.10;;
80411;SDS011;69749;42.684;23.360;2023-05-29T05:11:45;11.75;;;8.82;;
80411;SDS011;69749;42.684;23.360;2023-05-29T05:14:11;19.13;;;8.60;;
80411;SDS011;69749;42.684;23.360;2023-05-29T05:16:36;15.02;;;8.85;;
80411;SDS011;69749;42.684;23.360;2023-05-29T05:19:01;20.90;;;8.90;;
80411;SDS011;69749;42.684;23.360;2023-05-29T05:21:27;17.15;;;9.52;;
80411;SDS011;69749;42.684;23.360;2023-05-29T05:23:55;14.82;;;8.73;;
80411;SDS011;69749;42.684;23.360;2023-05-29T05:26:21;15.55;;;8.40;;
80411;SDS011;69749;42.684;23.360;2023-05-29T05:28:47;16.42;;;9.85;;
80411;SDS011;69749;42.684;23.360;2023-05-29T05:31:12;13.45;;;8.05;;
80411;SDS011;69749;42.684;23.360;2023-05-29T05:33:38;13.82;;;8.48;;
80411;SDS011;69749;42.684;23.360;2023-05-29T05:36:03;17.23;;;8.10;;
80411;SDS011;69749;42.684;23.360;2023-05-29T05:38:28;7.65;;;6.13;;
80411;SDS011;69749;42.684;23.360;2023-05-29T05:40:54;11.23;;;6.55;;
80411;SDS011;69749;42.684;23.360;2023-05-29T05:43:21;11.05;;;6.45;;
80411;SDS011;69749;42.684;23.360;2023-05-29T05:45:46;16.58;;;7.22;;
80411;SDS011;69749;42.684;23.360;2023-05-29T05:48:12;14.93;;;6.25;;
80411;SDS011;69749;42.684;23.360;2023-05-29T05:50:37;11.43;;;6.28;;
80411;SDS011;69749;42.684;23.360;2023-05-29T05:53:02;14.13;;;7.40;;
80411;SDS011;69749;42.684;23.360;2023-05-29T05:55:28;17.80;;;6.85;;
80411;SDS011;69749;42.684;23.360;2023-05-29T05:57:54;9.00;;;5.75;;
80411;SDS011;69749;42.684;23.360;2023-05-29T06:00:21;12.18;;;5.82;;
80411;SDS011;69749;42.684;23.360;2023-05-29T06:02:50;9.98;;;4.70;;
80411;SDS011;69749;42.684;23.360;2023-05-29T06:05:16;10.32;;;5.15;;
80411;SDS011;69749;42.684;23.360;2023-05-29T06:07:41;8.45;;;4.70;;
80411;SDS011;69749;42.684;23.360;2023-05-29T06:10:07;5.53;;;3.67;;
80411;SDS011;69749;42.684;23.360;2023-05-29T06:12:33;7.45;;;4.10;;
80411;SDS011;69749;42.684;23.360;2023-05-29T06:14:59;6.35;;;4.40;;
80411;SDS011;69749;42.684;23.360;2023-05-29T06:17:25;5.13;;;3.13;;
80411;SDS011;69749;42.684;23.360;2023-05-29T06:19:50;5.53;;;3.03;;
80411;SDS011;69749;42.684;23.360;2023-05-29T06:22:15;12.38;;;3.85;;
80411;SDS011;69749;42.684;23.360;2023-05-29T06:24:41;7.13;;;4.03;;
80411;SDS011;69749;42.684;23.360;2023-05-29T06:27:06;7.63;;;4.03;;
80411;SDS011;69749;42.684;23.360;2023-05-29T06:29:32;9.38;;;5.25;;
80411;SDS011;69749;42.684;23.360;2023-05-29T06:31:58;10.73;;;5.65;;
80411;SDS011;69749;42.684;23.360;2023-05-29T06:34:24;6.45;;;3.63;;
80411;SDS011;69749;42.684;23.360;2023-05-29T06:36:49;6.00;;;3.22;;
80411;SDS011;69749;42.684;23.360;2023-05-29T06:39:15;9.48;;;3.75;;
80411;SDS011;69749;42.684;23.360;2023-05-29T06:41:40;7.60;;;4.35;;
80411;SDS011;69749;42.684;23.360;2023-05-29T06:44:06;4.07;;;3.00;;
80411;SDS011;69749;42.684;23.360;2023-05-29T06:46:31;5.05;;;2.97;;
80411;SDS011;69749;42.684;23.360;2023-05-29T06:48:57;3.20;;;2.53;;
80411;SDS011;69749;42.684;23.360;2023-05-29T06:51:22;9.10;;;3.33;;
80411;SDS011;69749;42.684;23.360;2023-05-29T06:53:47;8.70;;;3.97;;
80411;SDS011;69749;42.684;23.360;2023-05-29T06:56:13;10.35;;;4.68;;
80411;SDS011;69749;42.684;23.360;2023-05-29T06:58:38;10.35;;;3.95;;
80411;SDS011;69749;42.684;23.360;2023-05-29T07:01:04;5.10;;;2.80;;
80411;SDS011;69749;42.684;23.360;2023-05-29T07:03:30;4.32;;;2.60;;
80411;SDS011;69749;42.684;23.360;2023-05-29T07:05:55;6.63;;;3.90;;
80411;SDS011;69749;42.684;23.360;2023-05-29T07:08:21;4.10;;;2.95;;
80411;SDS011;69749;42.684;23.360;2023-05-29T07:10:47;3.95;;;2.78;;
80411;SDS011;69749;42.684;23.360;2023-05-29T07:13:16;2.97;;;1.88;;
80411;SDS011;69749;42.684;23.360;2023-05-29T07:15:42;2.42;;;1.90;;
80411;SDS011;69749;42.684;23.360;2023-05-29T07:18:08;4.88;;;2.58;;
80411;SDS011;69749;42.684;23.360;2023-05-29T07:20:33;3.35;;;2.38;;
80411;SDS011;69749;42.684;23.360;2023-05-29T07:22:59;4.97;;;2.60;;
80411;SDS011;69749;42.684;23.360;2023-05-29T07:25:25;2.28;;;1.52;;
80411;SDS011;69749;42.684;23.360;2023-05-29T07:27:51;3.13;;;1.95;;
80411;SDS011;69749;42.684;23.360;2023-05-29T07:30:16;2.63;;;2.33;;
80411;SDS011;69749;42.684;23.360;2023-05-29T07:32:43;8.60;;;5.35;;
80411;SDS011;69749;42.684;23.360;2023-05-29T07:35:08;5.05;;;2.70;;
80411;SDS011;69749;42.684;23.360;2023-05-29T07:37:34;5.15;;;3.00;;
80411;SDS011;69749;42.684;23.360;2023-05-29T07:40:00;3.67;;;2.50;;
80411;SDS011;69749;42.684;23.360;2023-05-29T07:42:25;3.78;;;2.53;;
80411;SDS011;69749;42.684;23.360;2023-05-29T07:44:51;4.15;;;1.92;;
80411;SDS011;69749;42.684;23.360;2023-05-29T07:47:17;3.08;;;2.05;;
80411;SDS011;69749;42.684;23.360;2023-05-29T07:49:42;4.70;;;2.42;;
80411;SDS011;69749;42.684;23.360;2023-05-29T07:52:08;7.55;;;3.22;;
80411;SDS011;69749;42.684;23.360;2023-05-29T07:54:33;2.58;;;1.90;;
80411;SDS011;69749;42.684;23.360;2023-05-29T07:56:59;3.22;;;2.45;;
80411;SDS011;69749;42.684;23.360;2023-05-29T07:59:25;8.60;;;3.30;;
80411;SDS011;69749;42.684;23.360;2023-05-29T08:01:51;2.83;;;2.20;;
80411;SDS011;69749;42.684;23.360;2023-05-29T08:04:16;4.55;;;2.28;;
80411;SDS011;69749;42.684;23.360;2023-05-29T08:06:41;6.03;;;2.25;;
80411;SDS011;69749;42.684;23.360;2023-05-29T08:09:08;3.65;;;2.13;;
80411;SDS011;69749;42.684;23.360;2023-05-29T08:11:35;3.50;;;2.45;;
80411;SDS011;69749;42.684;23.360;2023-05-29T08:14:01;3.03;;;2.30;;
80411;SDS011;69749;42.684;23.360;2023-05-29T08:16:26;2.85;;;2.55;;
80411;SDS011;69749;42.684;23.360;2023-05-29T08:18:52;5.38;;;2.53;;
80411;SDS011;69749;42.684;23.360;2023-05-29T08:21:18;3.97;;;2.30;;
80411;SDS011;69749;42.684;23.360;2023-05-29T08:23:44;3.58;;;2.83;;
80411;SDS011;69749;42.684;23.360;2023-05-29T08:26:09;7.35;;;3.22;;
80411;SDS011;69749;42.684;23.360;2023-05-29T08:28:35;2.90;;;2.22;;
80411;SDS011;69749;42.684;23.360;2023-05-29T08:31:00;2.95;;;2.15;;
80411;SDS011;69749;42.684;23.360;2023-05-29T08:33:26;3.60;;;2.00;;
80411;SDS011;69749;42.684;23.360;2023-05-29T08:35:51;3.22;;;2.22;;
80411;SDS011;69749;42.684;23.360;2023-05-29T08:38:17;4.13;;;2.20;;
80411;SDS011;69749;42.684;23.360;2023-05-29T08:40:42;3.83;;;2.50;;
80411;SDS011;69749;42.684;23.360;2023-05-29T08:45:41;3.35;;;2.60;;
80411;SDS011;69749;42.684;23.360;2023-05-29T08:48:08;3.13;;;2.50;;
80411;SDS011;69749;42.684;23.360;2023-05-29T08:50:35;5.05;;;2.35;;
80411;SDS011;69749;42.684;23.360;2023-05-29T08:53:04;4.32;;;2.63;;
80411;SDS011;69749;42.684;23.360;2023-05-29T08:55:30;3.45;;;2.80;;
80411;SDS011;69749;42.684;23.360;2023-05-29T08:57:56;4.13;;;2.50;;
80411;SDS011;69749;42.684;23.360;2023-05-29T09:00:22;3.83;;;2.50;;
80411;SDS011;69749;42.684;23.360;2023-05-29T09:02:53;3.60;;;2.60;;
80411;SDS011;69749;42.684;23.360;2023-05-29T09:07:46;8.77;;;3.03;;
80411;SDS011;69749;42.684;23.360;2023-05-29T09:10:12;5.28;;;3.30;;
80411;SDS011;69749;42.684;23.360;2023-05-29T09:12:38;5.50;;;2.97;;
80411;SDS011;69749;42.684;23.360;2023-05-29T09:15:08;4.95;;;3.40;;
80411;SDS011;69749;42.684;23.360;2023-05-29T09:17:43;3.60;;;2.67;;
80411;SDS011;69749;42.684;23.360;2023-05-29T09:20:18;8.77;;;5.10;;
80411;SDS011;69749;42.684;23.360;2023-05-29T09:22:54;3.00;;;2.65;;
80411;SDS011;69749;42.684;23.360;2023-05-29T09:25:31;5.22;;;3.25;;
80411;SDS011;69749;42.684;23.360;2023-05-29T09:27:59;5.00;;;3.20;;
80411;SDS011;69749;42.684;23.360;2023-05-29T09:33:13;6.55;;;3.90;;
80411;SDS011;69749;42.684;23.360;2023-05-29T09:35:41;3.70;;;3.33;;
80411;SDS011;69749;42.684;23.360;2023-05-29T09:38:11;5.35;;;3.50;;
80411;SDS011;69749;42.684;23.360;2023-05-29T09:40:38;3.80;;;2.92;;
80411;SDS011;69749;42.684;23.360;2023-05-29T09:43:14;3.38;;;2.67;;
80411;SDS011;69749;42.684;23.360;2023-05-29T09:45:48;3.03;;;2.55;;
80411;SDS011;69749;42.684;23.360;2023-05-29T09:48:17;4.68;;;3.33;;
80411;SDS011;69749;42.684;23.360;2023-05-29T09:50:47;4.35;;;3.60;;
80411;SDS011;69749;42.684;23.360;2023-05-29T09:53:19;4.32;;;3.45;;
80411;SDS011;69749;42.684;23.360;2023-05-29T09:55:53;4.22;;;2.97;;
80411;SDS011;69749;42.684;23.360;2023-05-29T09:58:24;12.85;;;3.58;;
80411;SDS011;69749;42.684;23.360;2023-05-29T10:00:50;4.70;;;3.03;;
80411;SDS011;69749;42.684;23.360;2023-05-29T10:05:44;3.40;;;2.80;;
80411;SDS011;69749;42.684;23.360;2023-05-29T10:08:14;4.57;;;3.00;;
80411;SDS011;69749;42.684;23.360;2023-05-29T10:10:42;4.03;;;2.80;;
80411;SDS011;69749;42.684;23.360;2023-05-29T10:13:11;5.53;;;3.00;;
80411;SDS011;69749;42.684;23.360;2023-05-29T10:15:37;4.03;;;3.22;;
80411;SDS011;69749;42.684;23.360;2023-05-29T10:18:20;7.22;;;3.47;;
80411;SDS011;69749;42.684;23.360;2023-05-29T10:20:49;5.18;;;3.35;;
80411;SDS011;69749;42.684;23.360;2023-05-29T10:23:21;3.08;;;2.58;;
80411;SDS011;69749;42.684;23.360;2023-05-29T10:25:51;4.65;;;2.88;;
80411;SDS011;69749;42.684;23.360;2023-05-29T10:28:19;6.93;;;3.13;;
80411;SDS011;69749;42.684;23.360;2023-05-29T10:30:58;4.80;;;3.10;;
80411;SDS011;69749;42.684;23.360;2023-05-29T10:38:45;7.95;;;3.20;;
80411;SDS011;69749;42.684;23.360;2023-05-29T10:49:18;7.03;;;3.35;;
80411;SDS011;69749;42.684;23.360;2023-05-29T10:51:44;4.13;;;3.47;;
80411;SDS011;69749;42.684;23.360;2023-05-29T10:54:09;3.38;;;2.95;;
80411;SDS011;69749;42.684;23.360;2023-05-29T10:56:35;6.45;;;4.25;;
80411;SDS011;69749;42.684;23.360;2023-05-29T10:59:01;7.63;;;3.97;;
80411;SDS011;69749;42.684;23.360;2023-05-29T11:01:30;6.95;;;4.55;;
80411;SDS011;69749;42.684;23.360;2023-05-29T11:06:40;6.60;;;3.83;;
80411;SDS011;69749;42.684;23.360;2023-05-29T11:09:06;6.78;;;3.22;;
80411;SDS011;69749;42.684;23.360;2023-05-29T11:15:02;4.03;;;2.95;;
80411;SDS011;69749;42.684;23.360;2023-05-29T11:17:31;4.10;;;2.92;;
80411;SDS011;69749;42.684;23.360;2023-05-29T11:20:06;3.53;;;2.90;;
80411;SDS011;69749;42.684;23.360;2023-05-29T11:22:56;5.68;;;3.28;;
80411;SDS011;69749;42.684;23.360;2023-05-29T11:25:33;8.77;;;3.30;;
80411;SDS011;69749;42.684;23.360;2023-05-29T11:28:00;4.70;;;2.72;;
80411;SDS011;69749;42.684;23.360;2023-05-29T11:30:28;4.95;;;3.05;;
80411;SDS011;69749;42.684;23.360;2023-05-29T11:32:54;6.22;;;3.42;;
80411;SDS011;69749;42.684;23.360;2023-05-29T11:35:26;3.30;;;2.95;;
80411;SDS011;69749;42.684;23.360;2023-05-29T11:37:55;3.80;;;2.53;;
80411;SDS011;69749;42.684;23.360;2023-05-29T11:40:22;3.95;;;3.22;;
80411;SDS011;69749;42.684;23.360;2023-05-29T11:42:47;5.60;;;3.00;;
80411;SDS011;69749;42.684;23.360;2023-05-29T11:45:17;2.95;;;2.67;;
80411;SDS011;69749;42.684;23.360;2023-05-29T11:47:56;3.50;;;3.20;;
80411;SDS011;69749;42.684;23.360;2023-05-29T11:50:25;4.05;;;3.33;;
80411;SDS011;69749;42.684;23.360;2023-05-29T11:52:52;3.55;;;3.22;;
80411;SDS011;69749;42.684;23.360;2023-05-29T11:55:20;5.75;;;3.40;;
80411;SDS011;69749;42.684;23.360;2023-05-29T11:57:47;8.65;;;3.80;;
80411;SDS011;69749;42.684;23.360;2023-05-29T12:00:14;5.82;;;3.55;;
80411;SDS011;69749;42.684;23.360;2023-05-29T12:02:40;7.82;;;3.83;;
80411;SDS011;69749;42.684;23.360;2023-05-29T12:05:12;5.95;;;4.15;;
80411;SDS011;69749;42.684;23.360;2023-05-29T12:08:00;5.15;;;3.40;;
80411;SDS011;69749;42.684;23.360;2023-05-29T12:10:26;6.97;;;4.03;;
80411;SDS011;69749;42.684;23.360;2023-05-29T12:12:58;5.07;;;4.10;;
80411;SDS011;69749;42.684;23.360;2023-05-29T12:15:25;6.35;;;3.75;;
80411;SDS011;69749;42.684;23.360;2023-05-29T12:17:51;9.07;;;3.63;;
80411;SDS011;69749;42.684;23.360;2023-05-29T12:20:18;6.80;;;3.97;;
80411;SDS011;69749;42.684;23.360;2023-05-29T12:25:11;5.63;;;5.03;;
80411;SDS011;69749;42.684;23.360;2023-05-29T12:27:41;8.70;;;5.97;;
80411;SDS011;69749;42.684;23.360;2023-05-29T12:30:26;12.35;;;7.10;;
80411;SDS011;69749;42.684;23.360;2023-05-29T12:32:52;16.80;;;6.53;;
80411;SDS011;69749;42.684;23.360;2023-05-29T12:38:07;13.43;;;4.95;;
80411;SDS011;69749;42.684;23.360;2023-05-29T12:40:36;10.82;;;4.65;;
80411;SDS011;69749;42.684;23.360;2023-05-29T12:43:04;8.30;;;4.57;;
80411;SDS011;69749;42.684;23.360;2023-05-29T12:45:31;8.43;;;4.72;;
80411;SDS011;69749;42.684;23.360;2023-05-29T12:48:02;10.00;;;5.32;;
80411;SDS011;69749;42.684;23.360;2023-05-29T12:50:32;8.27;;;4.72;;
80411;SDS011;69749;42.684;23.360;2023-05-29T12:53:03;10.13;;;5.30;;
80411;SDS011;69749;42.684;23.360;2023-05-29T12:55:33;9.80;;;4.55;;
80411;SDS011;69749;42.684;23.360;2023-05-29T12:58:06;8.02;;;3.75;;
80411;SDS011;69749;42.684;23.360;2023-05-29T13:00:33;5.65;;;4.28;;
80411;SDS011;69749;42.684;23.360;2023-05-29T13:05:26;7.25;;;3.40;;
80411;SDS011;69749;42.684;23.360;2023-05-29T13:07:52;7.82;;;4.28;;
80411;SDS011;69749;42.684;23.360;2023-05-29T13:10:18;5.47;;;3.67;;
80411;SDS011;69749;42.684;23.360;2023-05-29T13:12:44;6.70;;;4.03;;
80411;SDS011;69749;42.684;23.360;2023-05-29T13:15:10;5.25;;;3.78;;
80411;SDS011;69749;42.684;23.360;2023-05-29T13:17:37;10.85;;;4.32;;
80411;SDS011;69749;42.684;23.360;2023-05-29T13:20:07;6.97;;;3.88;;
80411;SDS011;69749;42.684;23.360;2023-05-29T13:22:36;5.60;;;3.72;;
80411;SDS011;69749;42.684;23.360;2023-05-29T13:25:02;4.10;;;3.25;;
80411;SDS011;69749;42.684;23.360;2023-05-29T13:27:31;6.18;;;3.38;;
80411;SDS011;69749;42.684;23.360;2023-05-29T13:29:59;5.30;;;4.03;;
80411;SDS011;69749;42.684;23.360;2023-05-29T13:32:24;4.60;;;3.95;;
80411;SDS011;69749;42.684;23.360;2023-05-29T13:34:50;6.53;;;4.28;;
80411;SDS011;69749;42.684;23.360;2023-05-29T13:37:15;6.65;;;4.13;;
80411;SDS011;69749;42.684;23.360;2023-05-29T13:39:41;5.10;;;3.30;;
80411;SDS011;69749;42.684;23.360;2023-05-29T13:42:07;5.65;;;4.18;;
80411;SDS011;69749;42.684;23.360;2023-05-29T13:44:32;4.20;;;2.15;;
80411;SDS011;69749;42.684;23.360;2023-05-29T13:46:58;4.63;;;2.90;;
80411;SDS011;69749;42.684;23.360;2023-05-29T13:49:23;3.72;;;2.45;;
80411;SDS011;69749;42.684;23.360;2023-05-29T13:51:50;4.25;;;2.67;;
80411;SDS011;69749;42.684;23.360;2023-05-29T13:54:16;4.68;;;2.17;;
80411;SDS011;69749;42.684;23.360;2023-05-29T13:56:44;4.43;;;1.95;;
80411;SDS011;69749;42.684;23.360;2023-05-29T13:59:10;4.85;;;1.88;;
80411;SDS011;69749;42.684;23.360;2023-05-29T14:01:35;2.30;;;1.50;;
80411;SDS011;69749;42.684;23.360;2023-05-29T14:04:01;2.83;;;1.80;;
80411;SDS011;69749;42.684;23.360;2023-05-29T14:06:26;1.90;;;1.70;;
80411;SDS011;69749;42.684;23.360;2023-05-29T14:08:52;7.43;;;1.90;;
80411;SDS011;69749;42.684;23.360;2023-05-29T14:11:18;2.45;;;1.73;;
80411;SDS011;69749;42.684;23.360;2023-05-29T14:13:44;2.60;;;1.70;;
80411;SDS011;69749;42.684;23.360;2023-05-29T14:16:09;3.97;;;2.50;;
80411;SDS011;69749;42.684;23.360;2023-05-29T14:18:35;4.63;;;2.33;;
80411;SDS011;69749;42.684;23.360;2023-05-29T14:21:00;3.22;;;1.90;;
80411;SDS011;69749;42.684;23.360;2023-05-29T14:23:25;2.83;;;1.98;;
80411;SDS011;69749;42.684;23.360;2023-05-29T14:25:51;3.08;;;1.88;;
80411;SDS011;69749;42.684;23.360;2023-05-29T14:28:16;3.35;;;1.80;;
80411;SDS011;69749;42.684;23.360;2023-05-29T14:30:42;2.97;;;1.60;;
80411;SDS011;69749;42.684;23.360;2023-05-29T14:33:08;3.55;;;1.60;;
80411;SDS011;69749;42.684;23.360;2023-05-29T14:35:33;2.13;;;1.65;;
80411;SDS011;69749;42.684;23.360;2023-05-29T14:37:59;2.15;;;1.80;;
80411;SDS011;69749;42.684;23.360;2023-05-29T14:40:24;3.72;;;2.35;;
80411;SDS011;69749;42.684;23.360;2023-05-29T14:42:49;4.75;;;3.33;;
80411;SDS011;69749;42.684;23.360;2023-05-29T14:45:16;3.20;;;2.22;;
80411;SDS011;69749;42.684;23.360;2023-05-29T14:47:42;1.92;;;1.73;;
80411;SDS011;69749;42.684;23.360;2023-05-29T14:50:07;3.05;;;1.95;;
80411;SDS011;69749;42.684;23.360;2023-05-29T14:52:33;2.85;;;1.52;;
80411;SDS011;69749;42.684;23.360;2023-05-29T14:55:01;2.85;;;1.92;;
80411;SDS011;69749;42.684;23.360;2023-05-29T14:57:27;2.47;;;1.77;;
80411;SDS011;69749;42.684;23.360;2023-05-29T14:59:52;4.13;;;1.80;;
80411;SDS011;69749;42.684;23.360;2023-05-29T15:02:17;4.10;;;2.25;;
80411;SDS011;69749;42.684;23.360;2023-05-29T15:04:43;2.63;;;2.33;;
80411;SDS011;69749;42.684;23.360;2023-05-29T15:07:08;7.32;;;2.47;;
80411;SDS011;69749;42.684;23.360;2023-05-29T15:09:33;4.28;;;2.60;;
80411;SDS011;69749;42.684;23.360;2023-05-29T15:11:59;4.20;;;2.80;;
80411;SDS011;69749;42.684;23.360;2023-05-29T15:14:24;7.18;;;2.70;;